Time;durP1;ratioP1;P1;durP2;ratioP2;P2;SDS_P1;SDS_P2;PMS_P1;PMS_P2;Temp;Humidity;BMP_temperature;BMP_pressure;BME280_temperature;BME280_humidity;BME280_pressure;Samples;Min_cycle;Max_cycle;Signal;HPM_P1;HPM_P2
2022/06/30 00:01:24;;;;;;;3.75;2.40;;;18.80;99.90;;;18.77;100.00;96908.06;4921691;28;20043;-39
2022/06/30 00:03:49;;;;;;;3.20;2.53;;;18.80;99.90;;;18.63;100.00;96888.63;4925404;28;20123;-39
2022/06/30 00:06:15;;;;;;;5.63;2.80;;;18.80;99.90;;;18.70;100.00;96903.22;4923310;28;20035;-39
2022/06/30 00:08:41;;;;;;;3.53;2.38;;;18.80;99.90;;;18.67;100.00;96903.44;4919675;28;20539;-39
2022/06/30 00:11:07;;;;;;;3.72;2.63;;;18.80;99.90;;;18.66;100.00;96909.78;4924628;28;20070;-39
2022/06/30 00:13:38;;;;;;;2.58;2.33;;;18.70;99.90;;;18.66;100.00;96908.91;4922492;28;20034;-39
2022/06/30 00:16:05;;;;;;;3.60;2.60;;;18.70;99.90;;;18.63;100.00;96906.47;4919275;28;20492;-39
2022/06/30 00:18:32;;;;;;;2.78;2.58;;;18.70;99.90;;;18.62;100.00;96910.13;4921151;28;20318;-39
2022/06/30 00:20:58;;;;;;;3.55;2.83;;;18.60;99.90;;;18.58;100.00;96905.97;4924535;28;20247;-39
2022/06/30 00:23:24;;;;;;;2.63;2.38;;;18.60;99.90;;;18.55;100.00;96895.53;4924902;28;20051;-39
2022/06/30 00:25:50;;;;;;;3.70;2.90;;;18.60;99.90;;;18.53;100.00;96902.81;4922763;28;20195;-39
2022/06/30 00:28:18;;;;;;;6.85;2.75;;;18.60;99.90;;;18.35;100.00;96879.22;4926995;28;20043;-39
2022/06/30 00:30:45;;;;;;;3.30;2.60;;;18.50;99.90;;;18.45;100.00;96901.59;4914014;28;20089;-39
2022/06/30 00:33:11;;;;;;;4.80;2.97;;;18.50;99.90;;;18.43;100.00;96900.84;4921379;28;20376;-40
2022/06/30 00:35:36;;;;;;;4.78;3.00;;;18.50;99.90;;;18.39;100.00;96896.69;4921250;28;20273;-39
2022/06/30 00:38:02;;;;;;;3.25;2.85;;;18.50;99.90;;;18.36;100.00;96906.75;4923722;28;20243;-39
2022/06/30 00:40:28;;;;;;;4.07;3.00;;;18.40;99.90;;;18.33;100.00;96901.69;4916035;28;20038;-39
2022/06/30 00:42:54;;;;;;;4.90;3.10;;;18.40;99.90;;;18.31;100.00;96907.97;4917608;28;20039;-39
2022/06/30 00:45:20;;;;;;;8.13;3.67;;;18.30;99.90;;;18.02;100.00;96864.81;4920680;28;20498;-40
2022/06/30 00:47:45;;;;;;;4.47;3.40;;;18.30;99.90;;;18.25;100.00;96905.78;4922068;28;20043;-39
2022/06/30 00:50:11;;;;;;;7.18;3.67;;;18.30;99.90;;;18.21;100.00;96903.44;4925761;28;20039;-39
2022/06/30 00:52:37;;;;;;;5.78;3.50;;;18.30;99.90;;;18.15;100.00;96898.59;4929934;28;20118;-39
2022/06/30 00:55:05;;;;;;;4.18;3.03;;;18.20;99.90;;;18.10;100.00;96896.25;4932223;28;20544;-39
2022/06/30 00:57:33;;;;;;;3.80;3.20;;;18.20;99.90;;;18.07;100.00;96888.47;4933987;28;20339;-39
2022/06/30 01:00:02;;;;;;;4.10;2.90;;;18.20;99.90;;;18.03;100.00;96898.53;4930736;28;20026;-39
2022/06/30 01:02:28;;;;;;;3.78;3.03;;;18.10;99.90;;;17.98;100.00;96891.84;4916588;29;20043;-39
2022/06/30 01:04:55;;;;;;;3.65;3.10;;;18.10;99.90;;;17.93;100.00;96887.69;4921797;28;20127;-39
2022/06/30 01:07:22;;;;;;;4.13;3.17;;;18.00;99.90;;;17.88;100.00;96886.34;4910738;29;20039;-39
2022/06/30 01:12:44;;;;;;;3.45;3.15;;;17.90;99.90;;;17.78;100.00;96888.81;4917319;28;20295;-39
2022/06/30 01:15:13;;;;;;;6.50;3.40;;;17.90;99.90;;;17.74;100.00;96884.66;4904451;28;20514;-39
2022/06/30 01:17:39;;;;;;;4.38;3.08;;;17.80;99.90;;;17.64;100.00;96871.19;4918843;28;20074;-40
2022/06/30 01:20:06;;;;;;;3.83;3.22;;;17.80;99.90;;;17.67;100.00;96878.09;4921851;28;20114;-40
2022/06/30 01:22:32;;;;;;;4.60;3.30;;;17.80;99.90;;;17.67;100.00;96883.41;4923597;28;20440;-39
2022/06/30 01:24:57;;;;;;;4.55;3.38;;;17.70;99.90;;;17.62;100.00;96874.91;4925823;28;20073;-39
2022/06/30 01:27:23;;;;;;;3.67;3.20;;;17.70;99.90;;;17.64;100.00;96883.63;4921590;28;20236;-39
2022/06/30 01:29:53;;;;;;;3.60;3.20;;;17.70;99.90;;;17.60;100.00;96883.00;4922514;28;20258;-39
2022/06/30 01:32:19;;;;;;;3.60;3.15;;;17.60;99.90;;;17.52;100.00;96874.75;4922152;28;20242;-39
2022/06/30 01:34:45;;;;;;;4.75;3.05;;;17.60;99.90;;;17.52;100.00;96870.25;4920703;28;20054;-39
2022/06/30 01:37:10;;;;;;;4.13;3.42;;;17.60;99.90;;;17.48;100.00;96871.44;4934296;28;20023;-39
2022/06/30 01:39:36;;;;;;;4.32;3.65;;;17.60;99.90;;;17.42;100.00;96869.22;4920782;28;20027;-39
2022/06/30 01:42:03;;;;;;;3.20;2.90;;;17.50;99.90;;;17.40;100.00;96864.97;4905444;28;20046;-39
2022/06/30 01:44:29;;;;;;;4.97;3.38;;;17.50;99.90;;;17.40;100.00;96871.16;4924184;28;20050;-39
2022/06/30 01:46:54;;;;;;;3.95;3.30;;;17.50;99.90;;;17.39;100.00;96868.59;4917404;28;20038;-39
2022/06/30 01:49:20;;;;;;;5.28;3.30;;;17.50;99.90;;;17.35;100.00;96873.28;4923313;28;20086;-39
2022/06/30 01:51:46;;;;;;;4.22;3.70;;;17.40;99.90;;;17.33;100.00;96859.22;4919158;28;20054;-39
2022/06/30 01:54:12;;;;;;;4.25;3.85;;;17.40;99.90;;;17.31;100.00;96866.50;4921685;28;20511;-39
2022/06/30 01:56:38;;;;;;;4.05;3.65;;;17.40;99.90;;;17.29;100.00;96863.09;4918072;28;20039;-39
2022/06/30 01:59:05;;;;;;;4.07;3.60;;;17.40;99.90;;;17.28;100.00;96866.72;4915107;28;20035;-40
2022/06/30 02:01:32;;;;;;;5.13;4.13;;;17.30;99.90;;;17.13;100.00;96839.38;4920539;28;20038;-39
2022/06/30 02:04:46;;;;;;;4.63;3.83;;;17.30;99.90;;;17.20;100.00;96853.94;4920447;28;20027;-47
2022/06/30 02:06:44;;;;;;;6.45;3.72;;;17.30;99.90;;;17.22;100.00;96860.00;4922024;28;20047;-40
2022/06/30 02:09:10;;;;;;;5.13;4.25;;;17.30;99.90;;;17.21;100.00;96854.78;4924212;28;20035;-39
2022/06/30 02:11:35;;;;;;;5.65;4.00;;;17.30;99.90;;;17.18;100.00;96850.56;4915934;28;20509;-39
2022/06/30 02:14:01;;;;;;;6.80;4.10;;;17.30;99.90;;;17.15;100.00;96851.59;4919561;28;20035;-39
2022/06/30 02:16:27;;;;;;;5.30;4.20;;;17.20;99.90;;;17.15;100.00;96856.09;4920342;28;20039;-39
2022/06/30 02:18:52;;;;;;;4.32;3.67;;;17.20;99.90;;;17.01;100.00;96834.91;4919427;28;20027;-39
2022/06/30 02:21:18;;;;;;;4.80;4.07;;;17.20;99.90;;;17.11;100.00;96851.94;4920697;28;20034;-39
2022/06/30 02:23:44;;;;;;;4.95;3.83;;;17.20;99.90;;;17.08;100.00;96860.16;4925482;28;20172;-39
2022/06/30 02:26:10;;;;;;;5.10;3.60;;;17.20;99.90;;;17.05;100.00;96850.59;4915814;28;20035;-39
2022/06/30 02:28:36;;;;;;;5.72;3.72;;;17.20;99.90;;;17.03;100.00;96854.31;4920334;28;20036;-39
2022/06/30 02:31:02;;;;;;;3.80;3.40;;;17.10;99.90;;;16.99;100.00;96853.66;4928312;28;20352;-40
2022/06/30 02:33:27;;;;;;;4.22;3.63;;;17.10;99.90;;;16.97;100.00;96867.09;4929895;28;20125;-39
2022/06/30 02:35:53;;;;;;;5.65;3.63;;;17.10;99.90;;;16.96;100.00;96860.09;4934139;28;20518;-39
2022/06/30 02:38:19;;;;;;;4.68;3.47;;;17.10;99.90;;;16.95;100.00;96858.38;4915466;29;20090;-39
2022/06/30 02:40:45;;;;;;;5.88;3.70;;;17.00;99.90;;;16.95;100.00;96860.19;4914178;28;20062;-40
2022/06/30 02:43:11;;;;;;;6.20;3.85;;;17.00;99.90;;;16.92;100.00;96861.28;4932525;28;20043;-39
2022/06/30 02:45:36;;;;;;;4.88;3.85;;;17.00;99.90;;;16.88;100.00;96856.25;4921922;28;20483;-39
2022/06/30 02:48:02;;;;;;;4.65;3.70;;;17.00;99.90;;;16.89;100.00;96861.47;4928245;28;20050;-39
2022/06/30 02:50:28;;;;;;;5.35;3.90;;;17.00;99.90;;;16.88;100.00;96850.94;4936754;28;20512;-39
2022/06/30 02:52:54;;;;;;;5.22;3.78;;;17.00;99.90;;;16.86;100.00;96851.03;4936440;28;20039;-39
2022/06/30 02:55:21;;;;;;;8.00;4.03;;;17.00;99.90;;;16.85;100.00;96854.69;4929619;28;20035;-39
2022/06/30 02:57:47;;;;;;;5.63;3.97;;;17.00;99.90;;;16.84;100.00;96852.97;4935336;28;20161;-39
2022/06/30 03:00:14;;;;;;;5.05;3.90;;;17.00;99.90;;;16.83;100.00;96848.59;4938385;28;20032;-39
2022/06/30 03:02:40;;;;;;;5.35;3.63;;;17.00;99.90;;;16.86;100.00;96850.19;4941140;28;20506;-39
2022/06/30 03:05:08;;;;;;;4.55;3.70;;;17.00;99.90;;;16.84;100.00;96846.78;4927497;28;20110;-39
2022/06/30 03:07:33;;;;;;;5.97;3.58;;;17.00;99.90;;;16.80;100.00;96844.31;4921658;28;20062;-39
2022/06/30 03:09:59;;;;;;;4.75;3.67;;;17.00;99.90;;;16.80;100.00;96849.63;4926398;28;20375;-39
2022/06/30 03:12:25;;;;;;;6.35;3.50;;;17.00;99.90;;;16.82;100.00;96849.53;4919643;28;20106;-39
2022/06/30 03:14:51;;;;;;;5.22;3.28;;;17.00;99.90;;;16.82;100.00;96854.84;4924317;28;20594;-39
2022/06/30 03:17:17;;;;;;;5.45;3.72;;;16.90;99.90;;;16.79;100.00;96852.41;4923501;28;20058;-39
2022/06/30 03:19:43;;;;;;;4.60;3.95;;;16.90;99.90;;;16.80;100.00;96854.13;4924123;28;20028;-39
2022/06/30 03:22:09;;;;;;;7.03;3.80;;;16.90;99.90;;;16.73;100.00;96835.06;4925261;28;20039;-39
2022/06/30 03:24:34;;;;;;;7.30;3.72;;;16.90;99.90;;;16.77;100.00;96855.16;4925620;28;20093;-39
2022/06/30 03:27:00;;;;;;;5.05;3.72;;;16.90;99.90;;;16.77;100.00;96857.84;4927251;28;20036;-39
2022/06/30 03:29:26;;;;;;;4.45;3.83;;;16.90;99.90;;;16.73;100.00;96847.53;4921317;28;20039;-39
2022/06/30 03:31:51;;;;;;;5.97;3.97;;;16.90;99.90;;;16.75;100.00;96849.09;4922175;28;20043;-39
2022/06/30 03:34:17;;;;;;;5.95;4.07;;;16.90;99.90;;;16.78;100.00;96851.56;4926093;28;20208;-39
2022/06/30 03:36:43;;;;;;;5.70;4.43;;;16.90;99.90;;;16.79;100.00;96849.75;4925838;28;20131;-39
2022/06/30 03:39:09;;;;;;;4.45;4.03;;;16.90;99.90;;;16.80;100.00;96849.63;4923227;28;20455;-39
2022/06/30 03:41:35;;;;;;;6.93;4.47;;;16.90;99.90;;;16.81;100.00;96850.47;4928404;28;20134;-39
2022/06/30 03:44:00;;;;;;;4.65;4.00;;;16.90;99.90;;;16.82;100.00;96848.69;4922419;28;20384;-39
2022/06/30 03:46:26;;;;;;;4.28;3.80;;;16.90;99.90;;;16.81;100.00;96847.81;4924244;28;20113;-39
2022/06/30 03:48:52;;;;;;;4.78;3.58;;;16.90;99.90;;;16.82;100.00;96848.69;4927012;28;20031;-39
2022/06/30 03:51:18;;;;;;;4.25;3.58;;;16.90;99.90;;;16.83;100.00;96847.72;4935241;28;21198;-39
2022/06/30 03:53:44;;;;;;;3.95;3.53;;;16.90;99.90;;;16.85;100.00;96849.34;4927475;28;20450;-39
2022/06/30 03:56:10;;;;;;;6.13;3.97;;;17.00;99.90;;;16.84;100.00;96847.63;4928584;28;20039;-39
2022/06/30 03:58:35;;;;;;;5.50;4.43;;;17.00;99.90;;;16.88;100.00;96848.28;4918317;28;20477;-39
2022/06/30 04:01:01;;;;;;;4.82;3.92;;;17.00;99.90;;;16.80;100.00;96833.66;4921701;28;20579;-39
2022/06/30 04:03:27;;;;;;;4.07;3.60;;;17.00;99.90;;;16.89;100.00;96845.50;4920436;28;20099;-39
2022/06/30 04:05:53;;;;;;;4.90;4.03;;;17.00;99.90;;;16.91;100.00;96848.06;4905436;28;20046;-39
2022/06/30 04:08:19;;;;;;;5.22;4.28;;;17.00;99.90;;;16.94;100.00;96840.69;4922335;28;20035;-39
2022/06/30 04:10:45;;;;;;;5.60;3.92;;;17.10;99.90;;;16.98;100.00;96838.66;4932402;28;20472;-39
2022/06/30 04:13:11;;;;;;;5.38;4.25;;;17.10;99.90;;;17.06;100.00;96840.78;4930376;28;20041;-39
2022/06/30 04:15:36;;;;;;;5.43;4.25;;;17.20;99.90;;;17.13;100.00;96844.69;4920545;28;20039;-39
2022/06/30 04:18:02;;;;;;;5.07;4.13;;;17.30;99.90;;;17.21;100.00;96849.47;4923923;28;20470;-39
2022/06/30 04:20:28;;;;;;;8.55;3.95;;;17.30;99.90;;;17.15;100.00;96832.97;4924398;28;20042;-39
2022/06/30 04:22:54;;;;;;;5.13;4.32;;;17.40;99.90;;;17.32;100.00;96850.41;4908378;28;20182;-39
2022/06/30 04:25:20;;;;;;;3.92;3.42;;;17.50;99.90;;;17.44;100.00;96858.44;4921961;28;20163;-39
2022/06/30 04:27:50;;;;;;;7.65;3.58;;;17.50;99.90;;;17.52;100.00;96854.25;4929536;28;20038;-39
2022/06/30 04:32:37;;;;;;;6.72;3.50;;;17.60;99.90;;;17.58;100.00;96858.28;4914145;28;20032;-39
2022/06/30 04:33:03;;;;;;;4.85;3.90;;;17.70;99.90;;;17.65;100.00;96867.53;4906210;28;20042;-39
2022/06/30 04:35:29;;;;;;;5.60;4.03;;;17.80;99.90;;;17.72;100.00;96855.44;4902170;28;20067;-39
2022/06/30 04:37:59;;;;;;;6.45;4.18;;;17.80;99.90;;;17.78;100.00;96858.63;4922746;28;20027;-39
2022/06/30 04:43:09;;;;;;;4.70;3.55;;;18.00;99.90;;;17.90;100.00;96845.25;4931927;28;20039;-39
2022/06/30 04:45:35;;;;;;;5.30;3.65;;;18.10;99.90;;;18.03;100.00;96847.00;4924812;28;20030;-39
2022/06/30 04:48:00;;;;;;;5.65;3.40;;;18.10;99.90;;;18.09;100.00;96839.38;4925178;28;20032;-39
2022/06/30 04:50:26;;;;;;;4.25;3.85;;;18.20;99.90;;;18.18;100.00;96843.16;4924253;28;20484;-39
2022/06/30 04:52:52;;;;;;;4.03;3.60;;;18.30;99.90;;;18.25;100.00;96846.19;4927533;28;20417;-39
2022/06/30 04:55:18;;;;;;;6.35;4.18;;;18.40;99.90;;;18.35;100.00;96841.00;4925102;28;21126;-38
2022/06/30 04:57:43;;;;;;;5.18;3.75;;;18.40;99.90;;;18.43;100.00;96839.44;4926343;28;20066;-39
2022/06/30 05:00:10;;;;;;;4.10;3.70;;;18.50;99.90;;;18.60;100.00;96842.63;4928674;28;20098;-39
2022/06/30 05:02:35;;;;;;;4.60;4.18;;;18.60;99.90;;;18.95;100.00;96831.84;4919141;28;20102;-38
2022/06/30 05:05:01;;;;;;;4.95;3.88;;;18.80;99.90;;;19.56;100.00;96836.72;4925702;28;20034;-39
2022/06/30 05:07:27;;;;;;;5.85;3.95;;;19.20;99.90;;;20.31;100.00;96837.59;4923512;28;20049;-39
2022/06/30 05:09:52;;;;;;;5.63;4.10;;;19.60;99.90;;;21.06;100.00;96832.09;4923396;28;20355;-39
2022/06/30 05:12:18;;;;;;;4.53;3.63;;;20.20;99.90;;;22.04;97.79;96849.25;4923098;28;20051;-39
2022/06/30 05:14:44;;;;;;;3.53;3.20;;;20.80;99.90;;;23.06;91.02;96844.13;4925994;28;20476;-39
2022/06/30 05:17:10;;;;;;;3.60;3.25;;;21.50;99.90;;;24.34;82.39;96852.19;4932658;28;20091;-39
2022/06/30 05:19:35;;;;;;;4.20;3.10;;;22.40;99.90;;;25.55;74.84;96854.94;4924177;28;20340;-39
2022/06/30 05:22:02;;;;;;;6.80;3.63;;;23.30;99.90;;;26.26;67.66;96850.03;4928231;28;20516;-39
2022/06/30 05:27:12;;;;;;;5.45;3.13;;;24.70;99.90;;;27.66;57.93;96847.88;4926609;28;20121;-39
2022/06/30 05:29:38;;;;;;;3.42;2.97;;;25.40;99.90;;;28.35;55.41;96858.78;4927022;28;20035;-39
2022/06/30 05:32:04;;;;;;;3.63;3.22;;;26.00;99.90;;;28.66;52.62;96855.16;4921567;28;20325;-39
2022/06/30 05:34:30;;;;;;;4.05;3.28;;;26.30;99.90;;;28.48;50.50;96860.88;4924512;28;20039;-39
2022/06/30 05:36:56;;;;;;;6.13;3.97;;;26.50;99.90;;;27.99;53.88;96851.22;4921892;28;20238;-39
2022/06/30 05:39:21;;;;;;;5.07;3.50;;;26.30;99.90;;;27.26;55.49;96855.13;4919158;28;20035;-39
2022/06/30 05:41:47;;;;;;;5.03;3.40;;;26.00;99.90;;;26.46;59.23;96854.06;4919426;28;20103;-39
2022/06/30 05:44:13;;;;;;;4.22;3.20;;;25.50;99.90;;;25.72;62.81;96853.97;4926326;28;20574;-39
2022/06/30 05:46:38;;;;;;;6.05;3.53;;;25.00;99.90;;;25.11;65.76;96845.13;4922123;28;20031;-40
2022/06/30 05:49:06;;;;;;;5.00;3.13;;;24.60;99.90;;;24.65;68.63;96852.63;4950341;23;20112;-38
2022/06/30 05:51:32;;;;;;;4.13;3.20;;;24.20;99.90;;;24.21;70.63;96847.22;4951991;28;20057;-40
2022/06/30 05:53:58;;;;;;;5.00;3.70;;;23.90;99.90;;;23.84;71.93;96847.38;4953009;28;20128;-40
2022/06/30 05:56:23;;;;;;;4.13;3.40;;;23.60;99.90;;;23.50;73.57;96829.16;4953164;28;20124;-40
2022/06/30 05:58:49;;;;;;;4.80;3.35;;;23.40;99.90;;;23.39;75.43;96844.50;4957092;28;20414;-40
2022/06/30 06:01:15;;;;;;;4.60;3.80;;;23.20;99.90;;;23.27;76.52;96828.72;4952687;28;20034;-40
2022/06/30 06:03:41;;;;;;;6.25;3.40;;;23.10;99.90;;;23.17;78.12;96832.31;4949664;28;20108;-40
2022/06/30 06:06:06;;;;;;;4.45;3.25;;;23.00;99.90;;;23.14;79.19;96839.84;4954784;28;20035;-40
2022/06/30 06:08:32;;;;;;;4.75;3.55;;;22.90;99.90;;;23.09;79.75;96842.13;4951717;28;20074;-40
2022/06/30 06:10:58;;;;;;;5.88;3.53;;;23.00;99.90;;;23.02;79.20;96837.31;4949473;28;20030;-40
2022/06/30 06:13:23;;;;;;;6.30;4.10;;;22.90;99.90;;;23.01;79.85;96838.28;4956763;28;20030;-40
2022/06/30 06:15:49;;;;;;;6.05;3.72;;;22.90;99.90;;;22.98;80.18;96833.22;4953989;28;20042;-40
2022/06/30 06:18:15;;;;;;;4.40;3.65;;;22.90;99.90;;;23.07;80.73;96839.56;4957747;28;20455;-40
2022/06/30 06:20:42;;;;;;;6.63;4.47;;;22.90;99.90;;;23.06;80.98;96837.91;4954179;28;20090;-40
2022/06/30 06:23:08;;;;;;;6.97;4.53;;;23.00;99.90;;;23.14;80.58;96845.22;4956207;28;20042;-40
2022/06/30 06:25:33;;;;;;;8.32;5.07;;;23.10;99.90;;;23.15;80.69;96839.69;4950127;28;20039;-40
2022/06/30 06:30:43;;;;;;;6.50;4.72;;;23.10;99.90;;;23.27;81.65;96840.31;4955261;28;20130;-40
2022/06/30 06:33:10;;;;;;;6.90;4.68;;;23.20;99.90;;;23.32;80.11;96837.19;4952596;28;20435;-40
2022/06/30 06:35:35;;;;;;;6.70;4.30;;;23.20;99.90;;;23.40;80.69;96839.97;4952363;28;20139;-40
2022/06/30 06:38:01;;;;;;;6.50;4.43;;;23.30;99.90;;;23.47;81.17;96840.22;4950855;28;20391;-40
2022/06/30 06:40:28;;;;;;;4.70;4.03;;;23.40;99.90;;;23.51;80.62;96837.09;4951391;28;20046;-40
2022/06/30 06:42:54;;;;;;;9.50;4.57;;;23.50;99.90;;;23.55;79.68;96843.84;4957657;28;20084;-40
2022/06/30 06:45:19;;;;;;;6.18;4.40;;;23.50;99.90;;;23.60;80.55;96835.34;4951646;28;20502;-40
2022/06/30 06:47:45;;;;;;;12.07;5.32;;;23.50;99.90;;;23.63;80.27;96829.63;4949648;28;20100;-40
2022/06/30 06:50:11;;;;;;;5.35;4.57;;;23.60;99.90;;;23.65;79.95;96824.94;4952187;28;20054;-40
2022/06/30 06:52:37;;;;;;;7.20;4.97;;;23.60;99.90;;;23.69;80.18;96823.66;4954382;28;20367;-40
2022/06/30 06:55:04;;;;;;;8.40;4.63;;;23.70;99.90;;;23.73;79.94;96824.19;4948607;28;20053;-40
2022/06/30 06:57:34;;;;;;;8.68;4.72;;;23.70;99.90;;;23.80;79.96;96830.69;4950976;28;20030;-40
2022/06/30 07:00:03;;;;;;;5.55;4.43;;;23.70;99.90;;;23.92;79.47;96836.66;4947344;28;20065;-40
2022/06/30 07:02:28;;;;;;;8.30;4.70;;;23.80;99.90;;;23.96;78.97;96830.84;4948283;28;20266;-40
2022/06/30 07:04:54;;;;;;;8.55;4.97;;;24.00;99.90;;;24.05;78.33;96836.28;4950557;28;20691;-40
2022/06/30 07:07:20;;;;;;;6.95;4.80;;;24.00;99.90;;;24.10;77.77;96839.34;4948089;28;20031;-40
2022/06/30 07:09:45;;;;;;;7.28;4.72;;;24.00;99.90;;;24.23;77.74;96841.66;4948090;28;21587;-40
2022/06/30 07:12:11;;;;;;;7.55;4.65;;;24.10;99.90;;;24.36;78.04;96836.72;4947761;28;20038;-40
2022/06/30 07:14:37;;;;;;;5.65;4.60;;;24.30;99.90;;;24.36;77.17;96823.25;4946074;28;20077;-40
2022/06/30 07:17:02;;;;;;;4.82;3.72;;;24.40;99.90;;;24.63;77.13;96843.00;4951618;28;20092;-40
2022/06/30 07:19:28;;;;;;;7.28;4.60;;;24.50;99.90;;;24.69;74.46;96842.34;4950140;28;20030;-40
2022/06/30 07:21:54;;;;;;;6.20;4.30;;;24.60;99.90;;;24.75;74.43;96839.03;4954720;28;20244;-40
2022/06/30 07:24:20;;;;;;;9.90;4.55;;;24.70;99.90;;;24.80;74.72;96834.03;4951631;28;20030;-40
2022/06/30 07:26:45;;;;;;;5.18;4.10;;;24.80;99.90;;;24.92;73.87;96838.09;4959222;28;20031;-42
2022/06/30 07:29:11;;;;;;;10.00;4.95;;;24.80;99.90;;;24.92;72.80;96832.72;4961419;28;20022;-42
2022/06/30 07:31:37;;;;;;;7.30;5.18;;;24.90;99.90;;;25.00;71.48;96833.75;4964675;28;20031;-44
2022/06/30 07:34:02;;;;;;;5.35;4.28;;;24.90;99.90;;;24.96;69.55;96841.34;4961729;28;20169;-42
2022/06/30 07:36:28;;;;;;;4.57;4.05;;;24.90;99.90;;;24.99;71.27;96837.50;4959791;28;20026;-42
2022/06/30 07:38:54;;;;;;;6.85;4.53;;;24.90;99.90;;;25.03;71.38;96836.97;4960459;28;20081;-43
2022/06/30 07:41:20;;;;;;;6.05;4.53;;;24.90;99.90;;;25.00;69.97;96834.63;4968386;28;20530;-41
2022/06/30 07:43:47;;;;;;;7.15;4.80;;;24.90;99.90;;;25.00;70.13;96836.47;4965565;28;20668;-42
2022/06/30 07:46:14;;;;;;;5.70;4.82;;;25.00;99.90;;;25.05;69.48;96839.53;4966868;28;20028;-42
2022/06/30 07:48:40;;;;;;;8.75;4.55;;;25.00;99.90;;;25.09;71.48;96832.81;4970712;28;20045;-43
2022/06/30 07:51:06;;;;;;;6.97;4.35;;;25.10;99.90;;;25.20;70.94;96827.13;4966665;28;20030;-43
2022/06/30 07:53:32;;;;;;;9.40;5.20;;;25.10;99.90;;;25.35;72.09;96832.78;4968296;28;20045;-44
2022/06/30 07:55:58;;;;;;;8.18;4.85;;;25.30;99.90;;;25.45;70.67;96828.09;4973333;28;20039;-42
2022/06/30 07:58:24;;;;;;;7.10;5.28;;;25.40;99.90;;;25.46;70.14;96823.53;4963081;28;20474;-42
2022/06/30 08:00:50;;;;;;;7.15;4.90;;;25.40;99.90;;;25.53;69.65;96821.88;4970621;28;20481;-39
2022/06/30 08:03:15;;;;;;;5.47;4.57;;;25.40;99.90;;;25.56;70.78;96821.53;4969614;28;20073;-42
2022/06/30 08:05:41;;;;;;;8.35;4.28;;;25.50;99.90;;;25.63;69.99;96813.63;4972472;28;20576;-41
2022/06/30 08:08:07;;;;;;;5.50;4.53;;;25.60;99.90;;;25.70;69.35;96806.56;4979435;28;20030;-42
2022/06/30 08:10:33;;;;;;;4.75;4.30;;;25.60;99.90;;;25.83;69.06;96812.31;4974303;28;20710;-43
2022/06/30 08:12:58;;;;;;;7.07;4.97;;;25.70;99.90;;;25.80;67.83;96815.34;4974878;28;20069;-42
2022/06/30 08:15:24;;;;;;;10.77;5.13;;;25.80;99.90;;;25.84;68.03;96814.00;4970554;28;20481;-42
2022/06/30 08:17:50;;;;;;;5.75;4.55;;;25.80;99.90;;;25.82;65.61;96816.00;4971509;28;20602;-43
2022/06/30 08:20:15;;;;;;;6.47;4.40;;;25.90;99.90;;;25.89;65.33;96817.03;4971010;28;20030;-42
2022/06/30 08:22:41;;;;;;;6.63;4.60;;;25.80;99.90;;;25.88;66.04;96817.22;4975078;28;20538;-42
2022/06/30 08:25:07;;;;;;;6.78;4.20;;;25.80;99.90;;;25.90;67.26;96815.19;4969787;28;20030;-42
2022/06/30 08:27:33;;;;;;;5.20;3.95;;;25.90;99.90;;;26.05;66.66;96824.34;4962648;28;20035;-42
2022/06/30 08:29:58;;;;;;;7.00;5.07;;;26.00;99.90;;;26.11;65.22;96828.22;4967066;28;20053;-42
2022/06/30 08:32:24;;;;;;;7.00;4.95;;;26.00;99.90;;;26.18;64.33;96831.94;4967888;28;20065;-42
2022/06/30 08:34:50;;;;;;;6.32;4.57;;;26.10;99.90;;;26.16;63.59;96819.63;4967877;28;20489;-40
2022/06/30 08:37:16;;;;;;;6.00;4.57;;;26.10;99.90;;;26.19;64.38;96822.00;4967259;28;20026;-40
2022/06/30 08:42:27;;;;;;;8.35;4.28;;;26.10;99.90;;;26.32;64.65;96821.47;4973232;28;20045;-39
2022/06/30 08:47:38;;;;;;;9.95;3.92;;;26.30;99.90;;;26.43;61.26;96816.59;4964681;28;20125;-40
2022/06/30 08:50:08;;;;;;;5.57;4.00;;;26.40;99.90;;;26.45;60.97;96819.09;4973367;28;20030;-40
2022/06/30 08:52:53;;;;;;;5.80;4.15;;;26.40;99.90;;;26.41;59.16;96818.59;4971624;28;20026;-40
2022/06/30 08:55:26;;;;;;;7.18;3.72;;;26.40;99.90;;;26.55;58.30;96816.22;4969261;28;20065;-40
2022/06/30 08:57:58;;;;;;;6.38;3.70;;;26.40;99.90;;;26.59;56.43;96807.59;4973482;28;20461;-40
2022/06/30 09:00:24;;;;;;;6.78;4.15;;;26.40;99.90;;;26.55;56.49;96802.72;4970382;28;20037;-40
2022/06/30 09:02:50;;;;;;;5.60;3.90;;;26.50;99.90;;;26.51;58.20;96794.09;4964133;28;20038;-40
2022/06/30 09:05:15;;;;;;;5.22;3.45;;;26.40;99.90;;;26.55;57.72;96794.59;4961823;28;20034;-39
2022/06/30 09:07:42;;;;;;;6.53;3.72;;;26.40;99.90;;;26.64;59.16;96791.72;4967622;28;20330;-40
2022/06/30 09:10:08;;;;;;;5.28;3.78;;;26.50;99.90;;;26.74;56.46;96788.84;4964766;28;20120;-40
2022/06/30 09:12:34;;;;;;;5.82;3.50;;;26.70;99.90;;;26.75;53.25;96787.81;4964931;28;20027;-40
2022/06/30 09:15:00;;;;;;;4.32;3.60;;;26.70;98.50;;;26.81;54.73;96792.53;4954697;28;20187;-40
2022/06/30 09:17:28;;;;;;;4.55;3.60;;;26.70;99.00;;;26.86;54.70;96792.00;4968638;28;20030;-40
2022/06/30 09:19:58;;;;;;;7.97;3.25;;;26.80;98.80;;;27.00;52.19;96791.28;4967686;28;20034;-40
2022/06/30 09:22:34;;;;;;;4.68;3.67;;;26.90;98.00;;;27.12;52.39;96788.22;4968177;28;20522;-40
2022/06/30 09:25:08;;;;;;;4.00;3.22;;;27.00;97.20;;;27.14;49.22;96788.88;4967539;28;20038;-40
2022/06/30 09:27:37;;;;;;;4.45;3.00;;;27.10;95.60;;;27.34;49.00;96792.03;4964620;28;20150;-40
2022/06/30 09:30:11;;;;;;;7.70;2.90;;;27.30;95.80;;;27.53;46.25;96786.16;4967238;28;20843;-40
2022/06/30 09:33:08;;;;;;;4.90;3.13;;;27.50;93.90;;;27.79;47.31;96785.81;4970386;28;20141;-39
2022/06/30 09:35:34;;;;;;;6.82;3.30;;;27.70;94.00;;;28.03;47.46;96783.13;4962872;28;20030;-39
2022/06/30 09:38:03;;;;;;;5.00;3.50;;;27.90;94.20;;;28.13;48.53;96781.03;4963060;28;20027;-40
2022/06/30 09:40:38;;;;;;;5.60;3.72;;;28.10;94.40;;;28.18;46.36;96778.59;4969943;28;20026;-39
2022/06/30 09:43:06;;;;;;;4.93;2.90;;;28.10;93.00;;;28.28;43.77;96783.75;4968489;28;20068;-39
2022/06/30 09:45:42;;;;;;;4.32;2.90;;;28.20;91.70;;;28.37;42.67;96777.22;4966874;28;20548;-39
2022/06/30 09:48:10;;;;;;;3.15;2.53;;;28.30;90.20;;;28.15;42.55;96768.13;4967062;28;20344;-39
2022/06/30 09:50:37;;;;;;;5.55;2.70;;;28.30;89.50;;;28.17;43.04;96779.63;4962662;28;20031;-40
2022/06/30 09:53:13;;;;;;;3.55;2.63;;;28.10;89.10;;;28.18;42.69;96778.59;4971602;28;20329;-40
2022/06/30 09:55:42;;;;;;;6.38;2.38;;;28.10;89.20;;;28.18;40.82;96773.19;4967838;28;20037;-39
2022/06/30 09:58:10;;;;;;;4.05;2.60;;;28.00;84.50;;;28.14;41.03;96769.16;4967055;28;20069;-39
2022/06/30 10:00:45;;;;;;;5.25;2.50;;;28.00;85.50;;;28.13;40.59;96773.72;4964502;28;20049;-40
2022/06/30 10:03:11;;;;;;;5.93;2.15;;;28.00;83.50;;;28.08;42.96;96767.16;4965156;28;20077;-39
2022/06/30 10:05:38;;;;;;;6.95;3.08;;;28.00;84.50;;;27.91;42.79;96751.06;4967249;28;20353;-39
2022/06/30 10:08:05;;;;;;;5.45;2.78;;;27.90;86.50;;;27.94;43.00;96763.38;4967495;28;20022;-39
2022/06/30 10:10:31;;;;;;;5.18;3.00;;;27.90;85.90;;;27.78;43.13;96758.88;4965566;28;20062;-39
2022/06/30 10:12:58;;;;;;;3.42;2.70;;;27.80;86.20;;;27.95;43.48;96757.78;4964622;28;20031;-39
2022/06/30 10:15:26;;;;;;;7.32;3.47;;;27.80;87.60;;;28.13;44.96;96759.34;4948870;28;20833;-38
2022/06/30 10:17:53;;;;;;;6.85;3.45;;;28.00;89.60;;;28.09;44.80;96753.44;4965900;28;20142;-39
2022/06/30 10:20:20;;;;;;;6.88;3.88;;;28.20;88.80;;;28.10;45.58;96746.16;4945258;28;20039;-39
2022/06/30 10:22:46;;;;;;;8.57;3.40;;;28.10;89.80;;;28.22;46.58;96752.81;4960627;28;20074;-39
2022/06/30 10:25:13;;;;;;;6.03;3.60;;;28.20;90.80;;;28.30;46.21;96750.03;4962155;28;20030;-39
2022/06/30 10:27:39;;;;;;;4.22;3.22;;;28.30;90.00;;;28.40;44.88;96744.34;4963128;28;20034;-39
2022/06/30 10:30:13;;;;;;;6.57;3.20;;;28.30;89.00;;;28.20;46.24;96744.03;4962284;28;20474;-39